Cascade, MT (59421)

3:10 AM MST on February 12, 2016 (GMT -0700)
Cascade Public Schools MT | | Change Station
CLOSE
Current Station
Personal Weather Station
Location: Cascade, MT
Elevation: 3435 ft
Nearby Weather Stations

Elev 3435 ft 47.27 °N, 111.71 °W | Updated 5 seconds ago

Overcast
Overcast
39.0 °F
Feels Like 39 °F
N
3.0
Wind Variable Wind from NE
Gusts 3.0 mph

Today
High -- | Low -- °F
--% Chance of Precip.
Yesterday
High -- | Low -- °F
Precip. -- in
Pressure 30.30 in
Visibility 10.0 miles
Clouds Mostly Cloudy 8000 ft
Overcast 9000 ft
Windchill 39 °F
Dew Point 31 °F
Humidity 71%
Rainfall 0.00 in
Snow Depth Not available.
7:37 AM 5:45 PM
Waxing Crescent, 19% visible
METAR KGTF 120953Z 02004KT 10SM BKN080 OVC090 00/M02 A3024 RMK AO2 SLP260 T00001017
Pressure 30.30 in
Visibility 10.0 miles
Clouds Mostly Cloudy 8000 ft
Overcast 9000 ft
Windchill 39 °F
Dew Point 31 °F
Humidity 71%
Rainfall 0.00 in
Snow Depth Not available.
7:37 AM 5:45 PM
Waxing Crescent, 19% visible
METAR KGTF 120953Z 02004KT 10SM BKN080 OVC090 00/M02 A3024 RMK AO2 SLP260 T00001017

10-Day Weather Forecast

Almanac

Astronomy

Feb. 12, 2016 Rise Set
Actual Time
Civil Twilight
Nautical Twilight
Astronomical Twilight
Moon
Length of Visible Light
Length of Day
Tomorrow will be .
, % of the Moon is Illuminated

Today's Extremes

State Highs State Lows

Community

WunderPhotos

Upload Photos

1,892,287 photos uploaded!

WunderBlog® & News

Nearby

Air Quality

  Air Quality AQ Index Pollutant
Not available.

Snow Depth

Station Depth Elevation

Earthquake Activity

City Distance Mag. Time & Date
Minimum magnitude displayed is 2.5.

Coastal Water Temperatures

Place Temperature

Stations

Nearby Weather Stations

Station Location Temp. Windchill Dew Point Humidity Wind Precip. Elev Updated Type
                   

Watches & Warnings

There are currently no watches in effect.